Time;durP1;ratioP1;P1;durP2;ratioP2;P2;SDS_P1;SDS_P2;PMS_P1;PMS_P2;Temp;Humidity;BMP_temperature;BMP_pressure;BME280_temperature;BME280_humidity;BME280_pressure;Samples;Min_cycle;Max_cycle;Signal;HPM_P1;HPM_P2
2023/03/28 00:02:04;;;;;;;6.47;1.53;;;;;;;;;;4954498;28;20078;-70
2023/03/28 00:04:30;;;;;;;2.88;1.25;;;;;;;;;;4928967;28;20141;-71
2023/03/28 00:06:57;;;;;;;5.90;1.70;;;;;;;;;;4944568;28;20175;-72
2023/03/28 00:09:24;;;;;;;7.78;1.80;;;;;;;;;;4928665;28;20066;-68
2023/03/28 00:11:51;;;;;;;3.55;1.33;;;;;;;;;;4951427;28;20167;-70
2023/03/28 00:14:17;;;;;;;6.68;2.00;;;;;;;;;;4927613;28;20061;-71
2023/03/28 00:16:46;;;;;;;8.50;1.75;;;;;;;;;;4934784;28;20063;-70
2023/03/28 00:19:13;;;;;;;3.85;1.73;;;;;;;;;;4938372;28;20090;-71
2023/03/28 00:21:41;;;;;;;6.07;1.50;;;;;;;;;;4928098;28;20063;-70
2023/03/28 00:24:12;;;;;;;5.15;1.35;;;;;;;;;;4944533;28;20051;-70
2023/03/28 00:26:39;;;;;;;5.18;1.33;;;;;;;;;;4935992;28;20117;-68
2023/03/28 00:29:07;;;;;;;5.43;1.58;;;;;;;;;;4960087;28;20117;-72
2023/03/28 00:31:36;;;;;;;5.13;1.67;;;;;;;;;;4940681;28;20065;-69
2023/03/28 00:34:05;;;;;;;2.97;1.20;;;;;;;;;;4939604;28;20169;-66
2023/03/28 00:36:32;;;;;;;3.75;1.30;;;;;;;;;;4922682;28;20063;-68
2023/03/28 00:39:00;;;;;;;3.10;1.30;;;;;;;;;;4943991;28;20051;-68
2023/03/28 00:41:29;;;;;;;4.90;1.40;;;;;;;;;;4932269;28;20054;-67
2023/03/28 00:43:56;;;;;;;3.58;1.65;;;;;;;;;;4920404;29;20055;-72
2023/03/28 00:46:25;;;;;;;3.33;1.33;;;;;;;;;;4928574;28;20170;-68
2023/03/28 00:48:52;;;;;;;2.78;1.10;;;;;;;;;;4941788;28;20055;-66
2023/03/28 00:51:24;;;;;;;3.13;1.30;;;;;;;;;;4934192;28;20055;-68
2023/03/28 00:53:51;;;;;;;3.65;1.30;;;;;;;;;;4921845;28;20063;-71
2023/03/28 00:56:19;;;;;;;5.10;1.50;;;;;;;;;;4910760;28;20055;-70
2023/03/28 00:58:47;;;;;;;6.53;1.57;;;;;;;;;;4893773;28;20064;-74
2023/03/28 01:01:15;;;;;;;6.32;1.60;;;;;;;;;;4919124;28;20360;-70
2023/03/28 01:03:45;;;;;;;3.58;1.30;;;;;;;;;;4921038;28;20110;-75
2023/03/28 01:06:13;;;;;;;3.63;1.13;;;;;;;;;;4906681;29;20146;-74
2023/03/28 01:08:40;;;;;;;;;;;;;;;;;;4901216;28;20178;-68
2023/03/28 01:11:09;;;;;;;6.78;1.58;;;;;;;;;;4952387;28;19926;-75
2023/03/28 01:13:37;;;;;;;4.38;1.30;;;;;;;;;;4936255;28;20066;-71
2023/03/28 01:16:06;;;;;;;4.75;1.20;;;;;;;;;;4938724;28;20058;-67
2023/03/28 01:18:36;;;;;;;5.85;1.30;;;;;;;;;;4932168;28;21270;-73
2023/03/28 01:21:15;;;;;;;4.32;1.58;;;;;;;;;;4924100;28;20078;-70
2023/03/28 01:23:48;;;;;;;4.15;1.20;;;;;;;;;;4937384;28;20051;-70
2023/03/28 01:26:41;;;;;;;5.38;1.25;;;;;;;;;;4908930;28;20361;-72
2023/03/28 01:29:28;;;;;;;4.65;1.40;;;;;;;;;;4916274;28;20059;-70
2023/03/28 01:32:15;;;;;;;6.25;1.23;;;;;;;;;;4894833;29;20170;-70
2023/03/28 01:34:50;;;;;;;3.10;1.23;;;;;;;;;;4934395;28;20087;-70
2023/03/28 01:37:25;;;;;;;2.83;1.10;;;;;;;;;;4941011;28;20141;-68
2023/03/28 01:40:04;;;;;;;3.78;1.10;;;;;;;;;;4931516;28;20061;-72
2023/03/28 01:42:34;;;;;;;3.20;1.15;;;;;;;;;;4896383;28;20055;-72
2023/03/28 01:45:04;;;;;;;4.03;1.10;;;;;;;;;;4949542;28;20122;-70
2023/03/28 01:47:33;;;;;;;3.08;1.00;;;;;;;;;;4940186;28;20101;-73
2023/03/28 01:50:02;;;;;;;7.07;1.75;;;;;;;;;;4943852;28;20087;-70
2023/03/28 01:52:34;;;;;;;3.55;1.33;;;;;;;;;;4949554;28;20078;-70
2023/03/28 01:55:06;;;;;;;5.00;1.42;;;;;;;;;;4925355;28;20065;-70
2023/03/28 01:57:34;;;;;;;6.15;1.23;;;;;;;;;;4928822;28;20288;-72
2023/03/28 02:00:04;;;;;;;2.38;0.90;;;;;;;;;;4917990;28;20059;-66
2023/03/28 02:02:35;;;;;;;2.38;1.00;;;;;;;;;;4899656;28;20059;-72
2023/03/28 02:05:04;;;;;;;4.55;1.40;;;;;;;;;;4923850;28;20733;-72
2023/03/28 02:07:32;;;;;;;3.63;1.10;;;;;;;;;;4921488;28;20277;-69
2023/03/28 02:10:00;;;;;;;4.28;1.45;;;;;;;;;;4952533;28;20054;-71
2023/03/28 02:12:30;;;;;;;4.20;1.10;;;;;;;;;;4927026;28;20090;-73
2023/03/28 02:14:57;;;;;;;3.50;1.25;;;;;;;;;;4932158;28;20313;-73
2023/03/28 02:17:25;;;;;;;2.85;1.05;;;;;;;;;;4938329;28;20069;-70
2023/03/28 02:19:54;;;;;;;1.70;0.80;;;;;;;;;;4934676;28;20055;-69
2023/03/28 02:22:20;;;;;;;;;;;;;;;;;;4942724;28;20055;-66
2023/03/28 02:24:50;;;;;;;3.72;0.90;;;;;;;;;;4916066;28;19926;-67
2023/03/28 02:27:17;;;;;;;4.10;1.40;;;;;;;;;;4936792;28;20067;-70
2023/03/28 02:29:44;;;;;;;2.85;1.05;;;;;;;;;;4970740;28;20089;-69
2023/03/28 02:32:10;;;;;;;2.67;0.98;;;;;;;;;;4951341;28;20133;-72
2023/03/28 02:34:37;;;;;;;2.53;0.90;;;;;;;;;;4910568;28;20150;-71
2023/03/28 02:37:11;;;;;;;4.32;1.40;;;;;;;;;;4952433;28;20055;-70
2023/03/28 02:39:43;;;;;;;2.75;1.17;;;;;;;;;;4916620;28;20265;-72
2023/03/28 02:42:24;;;;;;;2.58;1.20;;;;;;;;;;4916584;28;20077;-73
2023/03/28 02:45:01;;;;;;;6.53;1.33;;;;;;;;;;4935002;28;20088;-72
2023/03/28 02:47:31;;;;;;;4.70;1.23;;;;;;;;;;4931492;28;20161;-76
2023/03/28 02:50:02;;;;;;;3.22;1.00;;;;;;;;;;4945277;28;20078;-71
2023/03/28 02:52:39;;;;;;;5.32;1.45;;;;;;;;;;4925227;28;20054;-73
2023/03/28 02:55:11;;;;;;;2.58;0.88;;;;;;;;;;4938683;28;20063;-69
2023/03/28 02:57:42;;;;;;;5.25;0.98;;;;;;;;;;4951861;28;20058;-68
2023/03/28 03:00:17;;;;;;;2.80;1.15;;;;;;;;;;4914706;29;20053;-68
2023/03/28 03:02:46;;;;;;;4.18;1.55;;;;;;;;;;4921706;28;20058;-72
2023/03/28 03:05:13;;;;;;;4.00;1.10;;;;;;;;;;4951486;28;20058;-72
2023/03/28 03:07:40;;;;;;;3.65;1.00;;;;;;;;;;4946337;28;20134;-69
2023/03/28 03:10:10;;;;;;;3.25;1.20;;;;;;;;;;4949925;28;20073;-69
2023/03/28 03:12:37;;;;;;;4.13;1.25;;;;;;;;;;4931540;28;20061;-72
2023/03/28 03:15:15;;;;;;;3.13;1.10;;;;;;;;;;4941419;28;20058;-72
2023/03/28 03:17:42;;;;;;;5.15;1.15;;;;;;;;;;4920790;28;20123;-69
2023/03/28 03:20:11;;;;;;;2.58;1.20;;;;;;;;;;4903874;28;20059;-72
2023/03/28 03:22:37;;;;;;;;;;;;;;;;;;4919929;28;20050;-70
2023/03/28 03:25:05;;;;;;;3.70;1.23;;;;;;;;;;4934841;28;19969;-72
2023/03/28 03:27:39;;;;;;;3.55;1.10;;;;;;;;;;4928651;28;20050;-72
2023/03/28 03:30:10;;;;;;;3.80;1.13;;;;;;;;;;4953342;28;20054;-68
2023/03/28 03:32:38;;;;;;;1.10;0.85;;;;;;;;;;4961861;28;20082;-70
2023/03/28 03:35:07;;;;;;;3.50;1.00;;;;;;;;;;4936842;28;20228;-69
2023/03/28 03:37:34;;;;;;;3.15;1.23;;;;;;;;;;4928525;28;20058;-72
2023/03/28 03:40:00;;;;;;;3.67;1.23;;;;;;;;;;4955622;28;20065;-75
2023/03/28 03:42:27;;;;;;;3.75;1.10;;;;;;;;;;4934874;28;20145;-66
2023/03/28 03:44:54;;;;;;;2.30;1.05;;;;;;;;;;4898596;28;20051;-71
2023/03/28 03:47:22;;;;;;;3.92;1.40;;;;;;;;;;4934445;28;20489;-69
2023/03/28 03:49:49;;;;;;;5.90;1.42;;;;;;;;;;4939218;28;20378;-67
2023/03/28 03:52:15;;;;;;;2.25;1.10;;;;;;;;;;4933225;28;20080;-73
2023/03/28 03:54:42;;;;;;;2.53;1.05;;;;;;;;;;4947109;28;20059;-68
2023/03/28 03:57:09;;;;;;;3.28;1.38;;;;;;;;;;4931702;28;20054;-71
2023/03/28 03:59:35;;;;;;;3.28;1.27;;;;;;;;;;4961471;28;20054;-69
2023/03/28 04:02:02;;;;;;;3.22;1.13;;;;;;;;;;4946096;28;20053;-69
2023/03/28 04:04:39;;;;;;;5.35;1.85;;;;;;;;;;4933606;28;20172;-73
2023/03/28 04:07:05;;;;;;;4.28;1.40;;;;;;;;;;4960373;28;20054;-71
2023/03/28 04:09:32;;;;;;;4.03;1.25;;;;;;;;;;4940446;28;20059;-73
2023/03/28 04:11:59;;;;;;;5.85;1.33;;;;;;;;;;4928346;28;20078;-74
2023/03/28 04:14:25;;;;;;;4.93;1.63;;;;;;;;;;4954137;28;20046;-69
2023/03/28 04:16:52;;;;;;;4.95;1.65;;;;;;;;;;4950853;28;20054;-67
2023/03/28 04:19:19;;;;;;;3.20;1.10;;;;;;;;;;4956889;28;20054;-73
2023/03/28 04:21:48;;;;;;;5.85;2.03;;;;;;;;;;4931260;28;20083;-73
2023/03/28 04:24:15;;;;;;;2.90;1.20;;;;;;;;;;4923675;28;20055;-74
2023/03/28 04:26:48;;;;;;;5.15;1.50;;;;;;;;;;4945385;28;20067;-70
2023/03/28 04:29:15;;;;;;;5.88;1.50;;;;;;;;;;4949467;28;20054;-67
2023/03/28 04:31:48;;;;;;;6.13;2.00;;;;;;;;;;4954204;28;20062;-73
2023/03/28 04:34:14;;;;;;;3.72;1.60;;;;;;;;;;4934896;28;20046;-74
2023/03/28 04:36:42;;;;;;;7.50;1.70;;;;;;;;;;4923668;28;20070;-69
2023/03/28 04:39:10;;;;;;;3.10;1.40;;;;;;;;;;4924920;28;20063;-68
2023/03/28 04:41:37;;;;;;;6.43;1.38;;;;;;;;;;4919171;28;20051;-69
2023/03/28 04:44:04;;;;;;;6.40;1.55;;;;;;;;;;4950569;28;20055;-73
2023/03/28 04:46:31;;;;;;;4.60;1.50;;;;;;;;;;4933360;28;20118;-68
2023/03/28 04:48:57;;;;;;;3.60;1.25;;;;;;;;;;4930781;28;20055;-71
2023/03/28 04:51:27;;;;;;;2.30;1.25;;;;;;;;;;4929885;28;20062;-71
2023/03/28 04:53:54;;;;;;;5.80;1.63;;;;;;;;;;4922581;28;20061;-75
2023/03/28 04:56:22;;;;;;;6.10;1.83;;;;;;;;;;4920008;28;20061;-72
2023/03/28 04:58:48;;;;;;;9.68;1.85;;;;;;;;;;4931391;28;20426;-70
2023/03/28 05:01:15;;;;;;;5.82;1.75;;;;;;;;;;4949117;28;20063;-71
2023/03/28 05:03:43;;;;;;;7.30;2.55;;;;;;;;;;4935303;28;20062;-72
2023/03/28 05:06:10;;;;;;;4.97;1.88;;;;;;;;;;4934828;28;20138;-75
2023/03/28 05:08:37;;;;;;;5.22;1.80;;;;;;;;;;4916116;28;20066;-70
2023/03/28 05:11:03;;;;;;;5.18;2.10;;;;;;;;;;4911963;28;20060;-70
2023/03/28 05:13:32;;;;;;;5.93;2.13;;;;;;;;;;4921782;28;20146;-70
2023/03/28 05:15:58;;;;;;;5.88;2.00;;;;;;;;;;4929014;28;20165;-71
2023/03/28 05:18:25;;;;;;;6.28;2.00;;;;;;;;;;4926297;28;20145;-70
2023/03/28 05:20:51;;;;;;;5.13;2.00;;;;;;;;;;4920326;28;20159;-71
2023/03/28 05:23:33;;;;;;;6.97;1.95;;;;;;;;;;4839674;29;20057;-69
2023/03/28 05:26:02;;;;;;;6.95;1.90;;;;;;;;;;4825533;29;20071;-71
2023/03/28 05:30:56;;;;;;;3.40;1.77;;;;;;;;;;4776517;29;20107;-70
2023/03/28 05:33:28;;;;;;;5.05;2.00;;;;;;;;;;4786171;29;20152;-72
2023/03/28 05:35:57;;;;;;;7.30;2.50;;;;;;;;;;4795131;29;20089;-67
2023/03/28 05:38:24;;;;;;;6.93;2.38;;;;;;;;;;4818733;29;20133;-70
2023/03/28 05:40:51;;;;;;;6.97;2.25;;;;;;;;;;4803452;29;20054;-69
2023/03/28 05:43:20;;;;;;;6.57;2.40;;;;;;;;;;4781970;29;20057;-72
2023/03/28 05:45:47;;;;;;;7.72;2.70;;;;;;;;;;4845586;29;20057;-69
2023/03/28 05:48:16;;;;;;;9.55;2.33;;;;;;;;;;4854243;29;20203;-67
2023/03/28 05:50:43;;;;;;;5.65;2.33;;;;;;;;;;4907394;28;20084;-72
2023/03/28 05:53:10;;;;;;;5.82;2.03;;;;;;;;;;4893236;28;21513;-69
2023/03/28 05:55:37;;;;;;;7.60;2.70;;;;;;;;;;4903860;29;20380;-72
2023/03/28 05:58:05;;;;;;;11.43;2.35;;;;;;;;;;4926236;28;20480;-70
2023/03/28 06:00:34;;;;;;;5.78;2.70;;;;;;;;;;4915080;29;20064;-70
2023/03/28 06:03:01;;;;;;;6.15;2.13;;;;;;;;;;4915692;28;20059;-72
2023/03/28 06:05:30;;;;;;;7.05;2.25;;;;;;;;;;4909310;29;20087;-69
2023/03/28 06:07:57;;;;;;;5.57;2.20;;;;;;;;;;4916600;29;20083;-73
2023/03/28 06:10:26;;;;;;;6.45;2.42;;;;;;;;;;4889887;29;20058;-72
2023/03/28 06:12:53;;;;;;;7.13;2.45;;;;;;;;;;4915032;28;20051;-69
2023/03/28 06:15:19;;;;;;;6.72;2.53;;;;;;;;;;4928504;28;20059;-70
2023/03/28 06:17:46;;;;;;;9.52;3.00;;;;;;;;;;4899102;29;20055;-70
2023/03/28 06:20:12;;;;;;;7.40;2.35;;;;;;;;;;4918580;28;20079;-69
2023/03/28 06:22:40;;;;;;;5.95;2.60;;;;;;;;;;4888193;29;20064;-71
2023/03/28 06:25:07;;;;;;;6.05;2.40;;;;;;;;;;4904401;29;20062;-67
2023/03/28 06:27:34;;;;;;;5.85;2.42;;;;;;;;;;4925118;29;20127;-71
2023/03/28 06:30:03;;;;;;;7.28;2.47;;;;;;;;;;4904417;29;20146;-70
2023/03/28 06:32:32;;;;;;;7.63;2.15;;;;;;;;;;4879835;29;20091;-70
2023/03/28 06:34:59;;;;;;;6.22;2.30;;;;;;;;;;4894567;28;20058;-71
2023/03/28 06:37:25;;;;;;;7.53;2.55;;;;;;;;;;4931404;28;20120;-68
2023/03/28 06:39:53;;;;;;;4.45;2.13;;;;;;;;;;4950428;28;20055;-69
2023/03/28 06:42:20;;;;;;;6.43;2.10;;;;;;;;;;4926892;28;20141;-68
2023/03/28 06:44:47;;;;;;;8.60;2.28;;;;;;;;;;4937028;28;20627;-70
2023/03/28 06:47:13;;;;;;;7.00;2.38;;;;;;;;;;4899466;28;20082;-68
2023/03/28 06:49:42;;;;;;;6.32;2.10;;;;;;;;;;4915134;28;20103;-71
2023/03/28 06:52:08;;;;;;;7.38;1.92;;;;;;;;;;4927974;28;20129;-68
2023/03/28 06:54:35;;;;;;;7.47;1.95;;;;;;;;;;4947639;28;20141;-70
2023/03/28 06:57:04;;;;;;;4.65;2.03;;;;;;;;;;4925477;28;20074;-69
2023/03/28 06:59:30;;;;;;;9.10;2.20;;;;;;;;;;4928215;29;20532;-70
2023/03/28 07:01:57;;;;;;;4.75;2.00;;;;;;;;;;4922632;28;20055;-68
2023/03/28 07:04:25;;;;;;;11.02;3.22;;;;;;;;;;4926417;28;20062;-69
2023/03/28 07:06:52;;;;;;;8.15;2.17;;;;;;;;;;4897536;28;20162;-69
2023/03/28 07:09:18;;;;;;;6.45;1.98;;;;;;;;;;4951191;28;20142;-70
2023/03/28 07:11:45;;;;;;;8.13;2.08;;;;;;;;;;4921412;28;20134;-70
2023/03/28 07:14:13;;;;;;;4.57;2.13;;;;;;;;;;4920204;28;20061;-70
2023/03/28 07:16:40;;;;;;;6.35;1.98;;;;;;;;;;4916062;28;20043;-70
2023/03/28 07:19:06;;;;;;;5.60;2.00;;;;;;;;;;4948210;28;20086;-68
2023/03/28 07:21:33;;;;;;;6.45;2.17;;;;;;;;;;4950521;28;20054;-69
2023/03/28 07:24:00;;;;;;;7.25;2.70;;;;;;;;;;4953801;28;20067;-71
2023/03/28 07:26:31;;;;;;;7.22;2.88;;;;;;;;;;4904110;28;20507;-69
2023/03/28 07:28:57;;;;;;;4.18;1.75;;;;;;;;;;4949433;28;20070;-70
2023/03/28 07:31:26;;;;;;;4.90;1.98;;;;;;;;;;4918798;29;20138;-73
2023/03/28 07:33:52;;;;;;;5.93;2.20;;;;;;;;;;4898125;28;20081;-70
2023/03/28 07:36:19;;;;;;;4.38;1.77;;;;;;;;;;4923561;28;20055;-70
2023/03/28 07:38:48;;;;;;;4.15;2.17;;;;;;;;;;4904647;28;20059;-66
2023/03/28 07:41:15;;;;;;;7.53;2.15;;;;;;;;;;4916165;29;20146;-71
2023/03/28 07:43:41;;;;;;;5.32;2.00;;;;;;;;;;4898035;28;20062;-72
2023/03/28 07:46:09;;;;;;;6.18;2.17;;;;;;;;;;4937225;28;20054;-67
2023/03/28 07:48:39;;;;;;;4.72;1.85;;;;;;;;;;4932828;28;20505;-70
2023/03/28 07:51:06;;;;;;;5.53;2.13;;;;;;;;;;4954719;28;20055;-72
2023/03/28 07:53:33;;;;;;;5.25;2.25;;;;;;;;;;4931778;28;20252;-70
2023/03/28 07:56:01;;;;;;;3.88;1.85;;;;;;;;;;4938320;28;20066;-70
2023/03/28 07:58:27;;;;;;;8.45;1.90;;;;;;;;;;4939880;28;20134;-70
2023/03/28 08:00:55;;;;;;;4.55;2.25;;;;;;;;;;4922786;28;20083;-72
2023/03/28 08:03:23;;;;;;;5.20;2.00;;;;;;;;;;4904231;28;20078;-69
2023/03/28 08:05:51;;;;;;;5.45;1.88;;;;;;;;;;4938054;28;20065;-70
2023/03/28 08:08:19;;;;;;;4.95;2.10;;;;;;;;;;4933301;28;20058;-68
2023/03/28 08:10:45;;;;;;;5.25;2.00;;;;;;;;;;4926089;28;20059;-69
2023/03/28 08:13:12;;;;;;;7.15;2.10;;;;;;;;;;4946616;28;20058;-69
2023/03/28 08:15:38;;;;;;;4.95;1.80;;;;;;;;;;4934879;28;20066;-74
2023/03/28 08:18:07;;;;;;;4.40;1.90;;;;;;;;;;4936911;28;20133;-69
2023/03/28 08:20:34;;;;;;;6.43;2.28;;;;;;;;;;4933562;28;20182;-72
2023/03/28 08:23:02;;;;;;;4.72;2.08;;;;;;;;;;4935333;28;20051;-71
2023/03/28 08:25:29;;;;;;;5.32;2.45;;;;;;;;;;4936288;28;20086;-73
2023/03/28 08:27:55;;;;;;;6.88;2.30;;;;;;;;;;4930244;28;20051;-71
2023/03/28 08:30:22;;;;;;;4.30;1.85;;;;;;;;;;4926360;28;20149;-75
2023/03/28 08:32:49;;;;;;;5.53;1.95;;;;;;;;;;4920181;28;20318;-75
2023/03/28 08:35:16;;;;;;;8.05;2.28;;;;;;;;;;4925379;28;21094;-69
2023/03/28 08:37:42;;;;;;;5.88;2.30;;;;;;;;;;4910019;28;20184;-70
2023/03/28 08:40:14;;;;;;;5.00;2.17;;;;;;;;;;4939518;28;20174;-71
2023/03/28 08:42:54;;;;;;;5.93;2.13;;;;;;;;;;4921521;28;20134;-74
2023/03/28 08:45:31;;;;;;;5.85;2.40;;;;;;;;;;4947051;28;20385;-73
2023/03/28 08:48:04;;;;;;;6.63;2.15;;;;;;;;;;4900086;28;20134;-68
2023/03/28 08:50:33;;;;;;;6.78;2.33;;;;;;;;;;4920052;28;20154;-68
2023/03/28 08:53:01;;;;;;;4.40;2.10;;;;;;;;;;4906541;28;20062;-70
2023/03/28 08:55:30;;;;;;;7.53;2.10;;;;;;;;;;4933267;28;20491;-67
2023/03/28 08:57:57;;;;;;;5.72;2.20;;;;;;;;;;4954409;28;20113;-68
2023/03/28 09:00:27;;;;;;;3.72;1.95;;;;;;;;;;4950755;28;20063;-68
2023/03/28 09:02:54;;;;;;;6.65;2.13;;;;;;;;;;4921862;28;20089;-69
2023/03/28 09:05:24;;;;;;;4.93;1.90;;;;;;;;;;4936464;28;20132;-67
2023/03/28 09:07:54;;;;;;;6.25;2.22;;;;;;;;;;4926554;28;20066;-68
2023/03/28 09:10:25;;;;;;;8.00;2.25;;;;;;;;;;4944550;28;20137;-68
2023/03/28 09:13:00;;;;;;;6.60;2.58;;;;;;;;;;4922629;28;20358;-68
2023/03/28 09:15:45;;;;;;;5.55;2.15;;;;;;;;;;4936551;28;20058;-71
2023/03/28 09:18:21;;;;;;;6.07;2.17;;;;;;;;;;4928404;28;20063;-69
2023/03/28 09:20:52;;;;;;;7.05;1.83;;;;;;;;;;4939062;28;20054;-69
2023/03/28 09:23:28;;;;;;;8.45;2.70;;;;;;;;;;4929400;28;20066;-68
2023/03/28 09:25:57;;;;;;;6.85;2.28;;;;;;;;;;4923009;29;20059;-70
2023/03/28 09:28:32;;;;;;;4.78;1.98;;;;;;;;;;4928871;28;20039;-67
2023/03/28 09:30:59;;;;;;;6.78;2.03;;;;;;;;;;4929354;28;20436;-69
2023/03/28 09:33:27;;;;;;;6.07;2.20;;;;;;;;;;4915477;28;20146;-69
2023/03/28 09:35:55;;;;;;;8.43;2.10;;;;;;;;;;4908059;28;20059;-75
2023/03/28 09:38:24;;;;;;;5.97;2.00;;;;;;;;;;4930005;28;20063;-70
2023/03/28 09:40:51;;;;;;;6.00;2.33;;;;;;;;;;4943479;28;20055;-70
2023/03/28 09:43:24;;;;;;;8.15;2.63;;;;;;;;;;4897806;28;20067;-69
2023/03/28 09:45:53;;;;;;;4.38;2.08;;;;;;;;;;4935805;28;20066;-71
2023/03/28 09:48:22;;;;;;;5.50;2.17;;;;;;;;;;4937075;28;20532;-70
2023/03/28 09:50:49;;;;;;;5.60;1.90;;;;;;;;;;4927638;28;20508;-65
2023/03/28 09:53:22;;;;;;;4.75;1.85;;;;;;;;;;4930097;28;20046;-68
2023/03/28 09:55:49;;;;;;;7.60;2.25;;;;;;;;;;4919786;28;20070;-69
2023/03/28 09:58:16;;;;;;;4.60;2.13;;;;;;;;;;4923572;28;20054;-67
2023/03/28 10:00:46;;;;;;;4.82;1.77;;;;;;;;;;4935880;28;20062;-67
2023/03/28 10:03:21;;;;;;;7.03;1.95;;;;;;;;;;4944060;28;20094;-66
2023/03/28 10:05:48;;;;;;;5.35;1.98;;;;;;;;;;4938766;28;20157;-65
2023/03/28 10:08:21;;;;;;;9.07;2.13;;;;;;;;;;4943860;28;20142;-68
2023/03/28 10:10:56;;;;;;;4.43;1.65;;;;;;;;;;4932315;28;20400;-66
2023/03/28 10:13:23;;;;;;;6.10;2.03;;;;;;;;;;4891282;28;20120;-69
2023/03/28 10:15:50;;;;;;;8.07;1.85;;;;;;;;;;4934439;28;20094;-67
2023/03/28 10:18:19;;;;;;;6.97;1.75;;;;;;;;;;4923861;28;20134;-66
2023/03/28 10:20:48;;;;;;;3.75;1.65;;;;;;;;;;4909939;28;20066;-67
2023/03/28 10:23:15;;;;;;;4.95;1.70;;;;;;;;;;4910370;28;20147;-66
2023/03/28 10:25:43;;;;;;;5.93;2.22;;;;;;;;;;4923711;28;20059;-68
2023/03/28 10:28:15;;;;;;;2.22;1.25;;;;;;;;;;4921360;28;20438;-66
2023/03/28 10:30:42;;;;;;;5.45;1.80;;;;;;;;;;4908599;28;20322;-67
2023/03/28 10:33:23;;;;;;;4.00;1.65;;;;;;;;;;4910855;28;20443;-68
2023/03/28 10:35:56;;;;;;;6.55;1.90;;;;;;;;;;4919814;28;20055;-67
2023/03/28 10:38:23;;;;;;;5.47;1.52;;;;;;;;;;4936582;28;20306;-68
2023/03/28 10:40:58;;;;;;;5.80;2.10;;;;;;;;;;4929310;28;20066;-69
2023/03/28 10:43:30;;;;;;;3.55;1.33;;;;;;;;;;4922074;28;20504;-68
2023/03/28 10:45:59;;;;;;;3.90;1.60;;;;;;;;;;4941090;28;20113;-65
2023/03/28 10:48:28;;;;;;;4.35;1.40;;;;;;;;;;4932761;28;20075;-69
2023/03/28 10:50:57;;;;;;;7.93;1.77;;;;;;;;;;4920499;28;20058;-68
2023/03/28 10:53:35;;;;;;;5.22;1.60;;;;;;;;;;4933724;29;20162;-69
2023/03/28 10:56:02;;;;;;;;;;;;;;;;;;4923009;28;20074;-68
2023/03/28 10:58:33;;;;;;;2.35;1.35;;;;;;;;;;4911113;28;20115;-70
2023/03/28 11:01:05;;;;;;;3.83;1.52;;;;;;;;;;4885613;28;20141;-68
2023/03/28 11:03:38;;;;;;;4.28;1.40;;;;;;;;;;4927938;28;20059;-69
2023/03/28 11:06:10;;;;;;;8.02;1.85;;;;;;;;;;4923563;28;20058;-69
2023/03/28 11:08:44;;;;;;;6.07;1.50;;;;;;;;;;4947738;28;20146;-69
2023/03/28 11:11:21;;;;;;;3.47;1.38;;;;;;;;;;4949728;28;20066;-68
2023/03/28 11:13:51;;;;;;;4.20;1.75;;;;;;;;;;4943683;28;20115;-71
2023/03/28 11:16:21;;;;;;;5.38;1.60;;;;;;;;;;4947765;28;20158;-65
2023/03/28 11:18:55;;;;;;;4.40;1.63;;;;;;;;;;4908977;28;20060;-65
2023/03/28 11:21:29;;;;;;;4.00;1.60;;;;;;;;;;4907744;28;20062;-66
2023/03/28 11:24:02;;;;;;;3.08;1.50;;;;;;;;;;4892706;28;20069;-68
2023/03/28 11:26:36;;;;;;;2.80;1.17;;;;;;;;;;4922487;28;20051;-67
2023/03/28 11:29:08;;;;;;;4.82;1.42;;;;;;;;;;4937853;29;20062;-69
2023/03/28 11:31:37;;;;;;;6.15;1.30;;;;;;;;;;4935680;28;20071;-69
2023/03/28 11:34:05;;;;;;;4.38;1.40;;;;;;;;;;4904342;28;20070;-65
2023/03/28 11:36:37;;;;;;;5.65;1.50;;;;;;;;;;4931489;28;20195;-71
2023/03/28 11:39:06;;;;;;;5.10;1.50;;;;;;;;;;4939446;28;20074;-64
2023/03/28 11:41:35;;;;;;;3.38;1.08;;;;;;;;;;4935914;28;20063;-66
2023/03/28 11:44:04;;;;;;;2.50;1.38;;;;;;;;;;4937013;28;20077;-67
2023/03/28 11:46:34;;;;;;;3.00;1.30;;;;;;;;;;4930339;28;20070;-67
2023/03/28 11:49:06;;;;;;;4.05;1.20;;;;;;;;;;4935222;28;20083;-66
2023/03/28 11:51:42;;;;;;;3.65;1.50;;;;;;;;;;4904530;28;20051;-70
2023/03/28 11:54:12;;;;;;;3.70;1.38;;;;;;;;;;4924326;28;20138;-68
2023/03/28 11:56:47;;;;;;;5.07;1.60;;;;;;;;;;4926313;28;20087;-68
2023/03/28 11:59:17;;;;;;;3.72;1.25;;;;;;;;;;4929034;28;20145;-68
2023/03/28 12:01:47;;;;;;;6.05;1.40;;;;;;;;;;4923629;29;20067;-66
2023/03/28 12:04:15;;;;;;;4.35;1.40;;;;;;;;;;4920846;28;20058;-66
2023/03/28 12:06:46;;;;;;;2.83;1.30;;;;;;;;;;4922130;28;20086;-66
2023/03/28 12:09:15;;;;;;;3.92;1.30;;;;;;;;;;4935418;28;20058;-66
2023/03/28 12:11:44;;;;;;;5.35;1.25;;;;;;;;;;4930908;28;20063;-69
2023/03/28 12:14:22;;;;;;;3.53;1.48;;;;;;;;;;4923649;28;20051;-67
2023/03/28 12:16:50;;;;;;;3.20;1.05;;;;;;;;;;4941982;28;20078;-68
2023/03/28 12:19:20;;;;;;;4.05;1.50;;;;;;;;;;4931473;28;20070;-67
2023/03/28 12:21:50;;;;;;;4.47;1.73;;;;;;;;;;4930280;28;20085;-69
2023/03/28 12:24:19;;;;;;;3.80;1.52;;;;;;;;;;4933808;28;20059;-67
2023/03/28 12:26:45;;;;;;;;;;;;;;;;;;4930249;28;20059;-65
2023/03/28 12:29:15;;;;;;;7.18;1.42;;;;;;;;;;4922502;28;19927;-65
2023/03/28 12:31:43;;;;;;;8.45;1.50;;;;;;;;;;4937420;28;20161;-68
2023/03/28 12:34:11;;;;;;;6.20;1.88;;;;;;;;;;4919925;28;20059;-70
2023/03/28 12:36:42;;;;;;;4.50;1.20;;;;;;;;;;4935668;28;20062;-67
2023/03/28 12:39:21;;;;;;;2.35;1.15;;;;;;;;;;4926696;28;20102;-68
2023/03/28 12:41:47;;;;;;;5.43;1.70;;;;;;;;;;4954337;28;20170;-68
2023/03/28 12:44:15;;;;;;;5.13;1.70;;;;;;;;;;4932860;28;20131;-68
2023/03/28 12:46:45;;;;;;;3.13;1.27;;;;;;;;;;4939042;28;20077;-68
2023/03/28 12:49:14;;;;;;;4.65;1.65;;;;;;;;;;4951559;28;20095;-71
2023/03/28 12:51:43;;;;;;;5.70;1.58;;;;;;;;;;4929912;28;20074;-70
2023/03/28 12:54:22;;;;;;;4.95;1.77;;;;;;;;;;4951009;28;20136;-68
2023/03/28 12:56:59;;;;;;;6.00;1.70;;;;;;;;;;4913146;28;20051;-69
2023/03/28 12:59:46;;;;;;;6.32;1.90;;;;;;;;;;4929091;28;20067;-64
2023/03/28 13:02:16;;;;;;;4.57;1.55;;;;;;;;;;4927692;28;20063;-68
2023/03/28 13:04:45;;;;;;;3.20;1.38;;;;;;;;;;4905662;28;20138;-67
2023/03/28 13:07:17;;;;;;;6.43;1.65;;;;;;;;;;4927441;28;20051;-66
2023/03/28 13:09:55;;;;;;;5.75;1.98;;;;;;;;;;4934946;28;20051;-69
2023/03/28 13:12:43;;;;;;;4.13;1.40;;;;;;;;;;4925838;28;20137;-67
2023/03/28 13:15:27;;;;;;;3.60;1.40;;;;;;;;;;4925975;28;20055;-68
2023/03/28 13:18:08;;;;;;;3.10;1.40;;;;;;;;;;4925191;29;20070;-68
2023/03/28 13:20:44;;;;;;;4.57;1.60;;;;;;;;;;4915214;28;20055;-67
2023/03/28 13:23:13;;;;;;;4.45;1.42;;;;;;;;;;4936565;28;20074;-70
2023/03/28 13:25:39;;;;;;;4.25;1.50;;;;;;;;;;4928364;28;20063;-65
2023/03/28 13:28:22;;;;;;;3.05;1.40;;;;;;;;;;4941409;28;20109;-65
2023/03/28 13:31:03;;;;;;;4.50;1.58;;;;;;;;;;4938611;28;20054;-67
2023/03/28 13:33:32;;;;;;;3.95;1.40;;;;;;;;;;4916902;28;20185;-65
2023/03/28 13:36:17;;;;;;;3.97;1.40;;;;;;;;;;4949251;28;20062;-69
2023/03/28 13:38:45;;;;;;;7.72;1.42;;;;;;;;;;4929244;28;20059;-69
2023/03/28 13:41:28;;;;;;;6.88;1.70;;;;;;;;;;4923551;28;20060;-70
2023/03/28 13:43:58;;;;;;;2.80;1.35;;;;;;;;;;4908109;28;20055;-67
2023/03/28 13:46:27;;;;;;;3.80;1.35;;;;;;;;;;4916231;28;20087;-67
2023/03/28 13:48:53;;;;;;;;;;;;;;;;;;4908356;28;20392;-67
2023/03/28 13:51:22;;;;;;;3.47;1.27;;;;;;;;;;4909147;28;19933;-67
2023/03/28 13:53:48;;;;;;;;;;;;;;;;;;4912711;28;20055;-64
2023/03/28 13:56:18;;;;;;;3.08;1.48;;;;;;;;;;4926420;28;19926;-67
2023/03/28 13:58:44;;;;;;;;;;;;;;;;;;4929620;28;20070;-66
2023/03/28 14:01:16;;;;;;;5.40;1.60;;;;;;;;;;4925010;29;19930;-66
2023/03/28 14:03:45;;;;;;;3.85;1.50;;;;;;;;;;4910938;28;20066;-65
2023/03/28 14:06:12;;;;;;;3.65;1.45;;;;;;;;;;4916511;28;20055;-66
2023/03/28 14:08:46;;;;;;;4.88;1.58;;;;;;;;;;4900567;28;20132;-68
2023/03/28 14:11:16;;;;;;;5.88;1.63;;;;;;;;;;4899708;29;20059;-69
2023/03/28 14:13:43;;;;;;;7.57;1.70;;;;;;;;;;4941814;28;20079;-66
2023/03/28 14:16:10;;;;;;;6.43;1.88;;;;;;;;;;4917664;28;20069;-67
2023/03/28 14:18:40;;;;;;;6.22;1.92;;;;;;;;;;4910814;29;20114;-65
2023/03/28 14:21:07;;;;;;;4.68;2.10;;;;;;;;;;4949549;28;20066;-66
2023/03/28 14:23:35;;;;;;;3.97;1.52;;;;;;;;;;4924876;28;20059;-68
2023/03/28 14:26:02;;;;;;;4.57;1.80;;;;;;;;;;4918760;28;20076;-69
2023/03/28 14:28:29;;;;;;;6.65;1.95;;;;;;;;;;4928626;28;20059;-67
2023/03/28 14:30:56;;;;;;;5.43;1.73;;;;;;;;;;4923339;28;20062;-68
2023/03/28 14:33:23;;;;;;;4.65;1.85;;;;;;;;;;4934861;28;20061;-69
2023/03/28 14:35:57;;;;;;;6.47;1.92;;;;;;;;;;4959265;28;20063;-68
2023/03/28 14:38:28;;;;;;;3.40;1.70;;;;;;;;;;4909165;28;20055;-68
2023/03/28 14:40:55;;;;;;;8.38;1.70;;;;;;;;;;4907497;28;20047;-69
2023/03/28 14:43:26;;;;;;;6.90;1.80;;;;;;;;;;4936141;28;20055;-67
2023/03/28 14:45:53;;;;;;;4.18;1.38;;;;;;;;;;4928095;28;20106;-69
2023/03/28 14:48:22;;;;;;;6.90;1.67;;;;;;;;;;4926354;28;20138;-67
2023/03/28 14:50:49;;;;;;;5.50;1.83;;;;;;;;;;4930275;28;20063;-67
2023/03/28 14:53:19;;;;;;;4.43;1.80;;;;;;;;;;4936539;28;20062;-67
2023/03/28 14:55:48;;;;;;;4.60;1.83;;;;;;;;;;4936621;28;20063;-69
2023/03/28 14:58:15;;;;;;;3.72;1.70;;;;;;;;;;4929590;28;20066;-68
2023/03/28 15:00:42;;;;;;;4.90;1.83;;;;;;;;;;4932540;28;20059;-67
2023/03/28 15:03:11;;;;;;;5.10;1.60;;;;;;;;;;4932399;28;20056;-65